Time;durP1;ratioP1;P1;durP2;ratioP2;P2;SDS_P1;SDS_P2;PMS_P1;PMS_P2;Temp;Humidity;BMP_temperature;BMP_pressure;BME280_temperature;BME280_humidity;BME280_pressure;Samples;Min_cycle;Max_cycle;Signal;HPM_P1;HPM_P2
2022/07/28 00:02:12;;;;;;;10.07;9.07;;;;;;;17.63;55.65;100488.69;4881298;28;97111;-85
2022/07/28 00:04:37;;;;;;;10.63;9.60;;;;;;;17.54;55.37;100491.00;4882057;28;100653;-85
2022/07/28 00:07:02;;;;;;;10.98;9.88;;;;;;;17.55;55.69;100493.59;4902861;28;101506;-85
2022/07/28 00:09:28;;;;;;;11.18;10.00;;;;;;;17.56;55.30;100489.13;4897866;28;97005;-85
2022/07/28 00:11:53;;;;;;;12.35;9.00;;;;;;;17.53;55.35;100490.16;4898200;28;96872;-85
2022/07/28 00:14:20;;;;;;;10.43;9.40;;;;;;;17.27;55.30;100454.59;4882300;28;100229;-85
2022/07/28 00:16:46;;;;;;;10.68;9.57;;;;;;;17.48;55.86;100502.00;4882101;28;100959;-85
2022/07/28 00:19:11;;;;;;;10.85;9.75;;;;;;;17.42;55.74;100496.13;4898358;28;96879;-85
2022/07/28 00:21:37;;;;;;;10.57;9.02;;;;;;;17.40;55.81;100491.88;4898441;28;96916;-85
2022/07/28 00:24:02;;;;;;;11.30;9.07;;;;;;;17.41;56.15;100491.75;4914220;28;100949;-85
2022/07/28 00:26:28;;;;;;;14.18;9.35;;;;;;;17.31;55.93;100487.13;4897347;28;100912;-85
2022/07/28 00:28:53;;;;;;;10.23;9.23;;;;;;;17.34;56.31;100500.19;4913635;28;97148;-85
2022/07/28 00:31:19;;;;;;;10.48;9.43;;;;;;;17.20;56.53;100493.03;4883205;28;96857;-85
2022/07/28 00:33:44;;;;;;;11.52;9.57;;;;;;;17.23;56.65;100503.47;4897379;28;97978;-85
2022/07/28 00:36:10;;;;;;;13.77;9.80;;;;;;;17.15;56.61;100481.84;4881792;28;100296;-85
2022/07/28 00:38:36;;;;;;;10.30;9.30;;;;;;;17.17;56.62;100482.63;4898345;28;96712;-84
2022/07/28 00:41:10;;;;;;;10.55;9.55;;;;;;;17.24;56.45;100488.41;4881759;28;97031;-86
2022/07/28 00:43:37;;;;;;;9.25;8.48;;;;;;;17.15;56.80;100481.84;4898556;28;100868;-84
2022/07/28 00:46:02;;;;;;;13.60;8.95;;;;;;;17.14;56.57;100491.59;4901480;28;97765;-85
2022/07/28 00:48:28;;;;;;;9.80;8.80;;;;;;;17.09;56.66;100488.34;4914011;28;97054;-85
2022/07/28 00:50:54;;;;;;;10.77;9.35;;;;;;;17.05;56.79;100475.38;4882216;28;97238;-85
2022/07/28 00:53:20;;;;;;;15.10;9.52;;;;;;;17.13;56.58;100492.56;4897986;28;101222;-85
2022/07/28 00:55:46;;;;;;;13.18;9.70;;;;;;;17.14;56.71;100490.75;4898861;28;100973;-85
2022/07/28 00:58:11;;;;;;;11.80;9.68;;;;;;;17.11;56.95;100485.63;4899727;28;97186;-85
2022/07/28 01:00:37;;;;;;;11.05;9.95;;;;;;;17.00;57.03;100488.06;4897779;28;97041;-83
2022/07/28 01:03:04;;;;;;;10.45;9.38;;;;;;;16.84;57.57;100474.81;4897763;28;98937;-85
2022/07/28 01:05:45;;;;;;;12.68;8.95;;;;;;;16.78;57.70;100472.50;4897873;28;108758;-86
2022/07/28 01:08:26;;;;;;;10.45;9.35;;;;;;;16.82;57.61;100484.66;4898127;28;96853;-85
2022/07/28 01:11:08;;;;;;;12.00;9.30;;;;;;;16.82;57.58;100489.97;4897603;28;97266;-85
2022/07/28 01:13:39;;;;;;;10.05;9.15;;;;;;;16.70;57.83;100487.03;4893608;28;101072;-85
2022/07/28 01:16:06;;;;;;;10.88;9.88;;;;;;;16.77;57.75;100500.81;4908343;28;101961;-85
2022/07/28 01:18:38;;;;;;;11.75;9.90;;;;;;;16.69;58.10;100495.91;4913713;28;97892;-85
2022/07/28 01:21:15;;;;;;;12.00;8.68;;;;;;;16.77;58.02;100505.28;4881773;28;97025;-86
2022/07/28 01:24:02;;;;;;;10.70;9.60;;;;;;;16.71;57.86;100506.44;4893207;28;100377;-84
2022/07/28 01:26:39;;;;;;;10.95;9.82;;;;;;;16.68;58.06;100502.16;4897348;28;100148;-85
2022/07/28 01:29:23;;;;;;;13.60;10.30;;;;;;;16.65;58.23;100499.69;4900231;28;96801;-86
2022/07/28 01:32:44;;;;;;;14.77;9.65;;;;;;;16.61;58.02;100500.81;4898578;28;96912;-85
2022/07/28 01:35:09;;;;;;;10.67;9.47;;;;;;;16.62;58.12;100509.63;4882840;28;101224;-85
2022/07/28 01:37:40;;;;;;;9.90;8.90;;;;;;;16.63;58.17;100506.00;4912710;28;99615;-85
2022/07/28 01:40:07;;;;;;;10.63;9.50;;;;;;;16.61;58.07;100508.78;4892876;28;96740;-85
2022/07/28 01:42:36;;;;;;;10.98;9.90;;;;;;;16.62;58.45;100517.56;4897561;28;97277;-85
2022/07/28 01:45:03;;;;;;;11.10;9.98;;;;;;;16.60;58.17;100522.09;4893319;28;101513;-85
2022/07/28 01:47:30;;;;;;;10.65;9.52;;;;;;;16.50;58.65;100511.16;4894071;28;97993;-85
2022/07/28 01:49:58;;;;;;;12.68;9.80;;;;;;;16.54;58.76;100523.28;4896756;28;96810;-85
2022/07/28 01:52:25;;;;;;;11.73;9.98;;;;;;;16.45;58.25;100503.44;4913453;28;97149;-84
2022/07/28 01:54:52;;;;;;;12.13;9.63;;;;;;;16.43;58.66;100510.63;4882249;28;101160;-85
2022/07/28 01:57:18;;;;;;;9.85;8.95;;;;;;;16.46;58.34;100512.25;4897167;28;101550;-85
2022/07/28 01:59:44;;;;;;;12.48;9.93;;;;;;;16.43;58.55;100515.91;4912754;28;96827;-86
2022/07/28 02:02:10;;;;;;;12.15;9.68;;;;;;;16.43;58.61;100523.03;4881134;28;96913;-85
2022/07/28 02:04:38;;;;;;;12.50;9.77;;;;;;;16.35;59.00;100511.97;4881362;28;100310;-85
2022/07/28 02:07:04;;;;;;;10.93;9.63;;;;;;;16.40;58.60;100515.25;4881265;28;99897;-86
2022/07/28 02:09:31;;;;;;;16.40;9.80;;;;;;;16.20;58.74;100487.19;4913126;28;96975;-85
2022/07/28 02:11:57;;;;;;;11.88;9.20;;;;;;;16.18;58.69;100492.59;4912970;28;97302;-85
2022/07/28 02:14:24;;;;;;;13.35;10.30;;;;;;;16.35;58.33;100511.97;4880433;28;102052;-85
2022/07/28 02:16:55;;;;;;;13.32;10.13;;;;;;;15.99;58.30;100457.44;4878535;28;99321;-85
2022/07/28 02:19:22;;;;;;;11.00;9.93;;;;;;;16.10;58.56;100486.84;4911927;28;96885;-85
2022/07/28 02:21:49;;;;;;;11.13;10.10;;;;;;;16.07;58.51;100495.81;4885244;28;96858;-85
2022/07/28 02:24:18;;;;;;;11.18;9.90;;;;;;;16.13;58.67;100517.63;4880937;28;101364;-86
2022/07/28 02:26:59;;;;;;;11.20;10.02;;;;;;;16.11;58.45;100522.13;4896001;28;101197;-85
2022/07/28 02:29:26;;;;;;;10.30;9.30;;;;;;;16.11;58.58;100532.72;4913351;28;96814;-85
2022/07/28 02:31:56;;;;;;;10.65;9.55;;;;;;;16.16;58.36;100528.88;4912544;28;97863;-86
2022/07/28 02:34:22;;;;;;;15.68;9.93;;;;;;;16.05;58.65;100523.31;4892780;28;102981;-85
2022/07/28 02:37:00;;;;;;;16.25;10.02;;;;;;;16.08;58.46;100517.84;4892651;28;101607;-85
2022/07/28 02:39:30;;;;;;;12.13;10.10;;;;;;;16.05;58.36;100528.59;4896555;28;96801;-85
2022/07/28 02:42:01;;;;;;;12.30;10.38;;;;;;;16.02;58.52;100512.88;4896075;28;98374;-85
2022/07/28 02:44:30;;;;;;;16.83;10.45;;;;;;;15.93;58.82;100534.56;4901435;28;101327;-85
2022/07/28 02:46:57;;;;;;;12.18;10.23;;;;;;;15.96;58.58;100534.41;4888402;28;101924;-85
2022/07/28 02:49:33;;;;;;;13.50;10.52;;;;;;;15.98;58.55;100541.31;4880467;28;96922;-84
2022/07/28 02:51:59;;;;;;;12.18;9.88;;;;;;;15.92;58.46;100543.44;4886643;28;96943;-85
2022/07/28 02:54:26;;;;;;;11.70;10.50;;;;;;;15.98;58.63;100548.41;4883968;28;101274;-85
2022/07/28 02:56:52;;;;;;;13.95;10.20;;;;;;;15.76;58.59;100519.56;4897971;28;99418;-85
2022/07/28 02:59:18;;;;;;;15.07;10.20;;;;;;;15.78;58.77;100539.72;4883628;28;96819;-84
2022/07/28 03:01:44;;;;;;;13.30;9.38;;;;;;;15.70;59.14;100549.84;4899289;28;97916;-85
2022/07/28 03:04:11;;;;;;;11.55;10.07;;;;;;;15.71;59.03;100558.66;4899216;28;97405;-85
2022/07/28 03:06:37;;;;;;;11.00;9.95;;;;;;;15.62;59.32;100558.16;4896446;28;100501;-85
2022/07/28 03:09:02;;;;;;;14.18;9.68;;;;;;;15.42;59.03;100529.22;4879905;28;96900;-85
2022/07/28 03:11:28;;;;;;;10.90;8.98;;;;;;;15.57;59.15;100564.63;4880578;28;96959;-85
2022/07/28 03:13:53;;;;;;;11.65;9.93;;;;;;;15.53;58.90;100552.47;4881628;28;101459;-84
2022/07/28 03:16:18;;;;;;;10.50;9.48;;;;;;;15.49;58.75;100558.84;4916732;28;97970;-85
2022/07/28 03:18:44;;;;;;;11.75;9.43;;;;;;;15.55;58.91;100577.06;4879207;28;97052;-85
2022/07/28 03:21:25;;;;;;;11.45;10.35;;;;;;;15.56;58.65;100584.06;4888332;28;97274;-85
2022/07/28 03:24:00;;;;;;;10.55;9.55;;;;;;;15.51;58.79;100571.06;4881260;28;101991;-85
2022/07/28 03:26:35;;;;;;;10.73;9.63;;;;;;;15.52;58.74;100582.50;4912891;28;98461;-85
2022/07/28 03:29:01;;;;;;;12.23;9.45;;;;;;;15.53;58.95;100582.44;4898096;28;99502;-85
2022/07/28 03:31:27;;;;;;;12.63;10.13;;;;;;;15.56;58.72;100589.34;4883321;28;96992;-85
2022/07/28 03:33:52;;;;;;;10.55;9.43;;;;;;;15.57;58.73;100591.06;4881881;28;101073;-84
2022/07/28 03:36:23;;;;;;;13.45;9.20;;;;;;;15.51;58.51;100586.94;4884063;28;101528;-84
2022/07/28 03:39:00;;;;;;;10.40;9.50;;;;;;;15.46;58.90;100582.81;4898486;28;97165;-84
2022/07/28 03:41:26;;;;;;;10.77;9.75;;;;;;;15.24;58.62;100565.38;4901150;28;96982;-85
2022/07/28 03:43:52;;;;;;;12.75;9.50;;;;;;;15.38;58.56;100573.47;4898672;28;100885;-85
2022/07/28 03:46:20;;;;;;;14.40;9.73;;;;;;;15.47;58.68;100590.66;4902226;28;97912;-85
2022/07/28 03:48:45;;;;;;;12.27;9.43;;;;;;;15.49;58.38;100594.09;4879421;28;96933;-84
2022/07/28 03:51:11;;;;;;;10.93;9.93;;;;;;;15.55;58.44;100595.56;4914345;28;96982;-84
2022/07/28 03:53:37;;;;;;;10.93;9.93;;;;;;;15.40;58.58;100573.41;4913916;28;97485;-85
2022/07/28 03:56:03;;;;;;;11.77;10.18;;;;;;;15.60;58.22;100598.84;4898332;28;100807;-86
2022/07/28 03:58:29;;;;;;;12.63;10.30;;;;;;;15.60;58.00;100599.72;4899045;28;98593;-85
2022/07/28 04:00:55;;;;;;;11.88;10.73;;;;;;;15.41;57.91;100567.16;4882736;28;96905;-85
2022/07/28 04:03:21;;;;;;;11.35;10.25;;;;;;;15.76;58.06;100615.69;4882904;28;100691;-86
2022/07/28 04:05:46;;;;;;;11.65;10.45;;;;;;;15.83;57.71;100608.31;4897126;28;101082;-84
2022/07/28 04:08:12;;;;;;;14.38;10.68;;;;;;;15.72;57.66;100600.91;4894283;28;96911;-85
2022/07/28 04:10:38;;;;;;;11.80;10.48;;;;;;;15.83;57.68;100613.59;4879967;28;96877;-85
2022/07/28 04:13:03;;;;;;;12.10;10.85;;;;;;;15.75;57.45;100594.59;4884912;28;98371;-84
2022/07/28 04:15:30;;;;;;;11.45;10.35;;;;;;;15.84;57.13;100613.50;4883334;28;100932;-85
2022/07/28 04:17:56;;;;;;;11.45;10.05;;;;;;;15.94;56.84;100610.38;4897407;28;97023;-85
2022/07/28 04:20:22;;;;;;;11.30;10.25;;;;;;;16.02;56.80;100617.00;4879897;28;97051;-85
2022/07/28 04:22:48;;;;;;;12.35;10.43;;;;;;;15.89;56.54;100572.72;4908006;28;97608;-84
2022/07/28 04:25:19;;;;;;;10.60;9.10;;;;;;;16.19;56.64;100607.31;4913703;28;101262;-85
2022/07/28 04:27:45;;;;;;;11.07;10.18;;;;;;;16.26;56.11;100600.75;4898580;28;97189;-86
2022/07/28 04:30:15;;;;;;;11.82;9.93;;;;;;;16.35;55.39;100604.69;4882477;28;96871;-85
2022/07/28 04:32:41;;;;;;;10.98;9.88;;;;;;;16.45;54.95;100598.84;4898204;28;101846;-86
2022/07/28 04:35:07;;;;;;;12.10;10.25;;;;;;;16.52;55.03;100599.34;4897448;28;100907;-85
2022/07/28 04:37:33;;;;;;;10.40;9.40;;;;;;;16.61;55.01;100601.53;4898041;28;96893;-85
2022/07/28 04:39:59;;;;;;;10.18;9.27;;;;;;;16.69;55.00;100595.78;4898426;28;96904;-85
2022/07/28 04:42:24;;;;;;;13.48;9.30;;;;;;;16.80;54.42;100597.88;4896976;28;100959;-85
2022/07/28 04:44:50;;;;;;;12.43;9.82;;;;;;;16.93;54.23;100598.94;4889805;28;101619;-84
2022/07/28 04:47:16;;;;;;;14.93;10.13;;;;;;;17.02;53.74;100600.19;4897284;28;96887;-85
2022/07/28 04:49:41;;;;;;;11.27;9.50;;;;;;;17.08;53.67;100584.78;4898983;28;96845;-85
2022/07/28 04:52:07;;;;;;;11.68;10.57;;;;;;;17.36;53.34;100596.44;4914814;28;98088;-85
2022/07/28 04:54:33;;;;;;;11.25;9.85;;;;;;;17.47;53.20;100596.69;4897624;28;99883;-85
2022/07/28 04:56:59;;;;;;;14.18;11.40;;;;;;;17.64;52.38;100601.00;4913681;28;97100;-86
2022/07/28 04:59:25;;;;;;;13.27;10.82;;;;;;;17.67;52.56;100574.28;4898641;28;96806;-85
2022/07/28 05:01:51;;;;;;;14.82;10.13;;;;;;;17.98;52.01;100593.72;4897628;28;101665;-84
2022/07/28 05:04:17;;;;;;;12.07;10.80;;;;;;;18.09;51.45;100588.59;4897850;28;98354;-85
2022/07/28 05:06:42;;;;;;;17.60;10.05;;;;;;;18.24;51.03;100590.34;4898035;28;96766;-85
2022/07/28 05:09:08;;;;;;;11.52;10.50;;;;;;;18.36;51.06;100591.38;4897479;28;96752;-85
2022/07/28 05:11:33;;;;;;;10.95;9.85;;;;;;;18.57;50.67;100588.31;4914093;28;97560;-85
2022/07/28 05:13:58;;;;;;;10.48;9.48;;;;;;;18.80;50.26;100586.91;4912965;28;101325;-85
2022/07/28 05:16:24;;;;;;;11.38;10.20;;;;;;;18.90;49.72;100588.00;4882290;28;96989;-84
2022/07/28 05:18:49;;;;;;;14.52;11.55;;;;;;;19.01;49.32;100585.50;4897373;28;97352;-86
2022/07/28 05:21:15;;;;;;;11.60;10.50;;;;;;;19.23;48.79;100599.13;4896910;28;102177;-85
2022/07/28 05:23:40;;;;;;;14.13;10.50;;;;;;;19.42;48.45;100596.06;4894670;28;97337;-86
2022/07/28 05:26:06;;;;;;;11.15;10.05;;;;;;;19.56;48.01;100584.50;4880683;28;96889;-83
2022/07/28 05:28:32;;;;;;;11.02;9.95;;;;;;;19.86;47.74;100594.91;4878395;28;97326;-83
2022/07/28 05:30:57;;;;;;;12.32;11.05;;;;;;;20.05;47.68;100596.31;4896815;28;100569;-85
2022/07/28 05:33:23;;;;;;;13.13;11.93;;;;;;;20.31;46.83;100600.69;4897159;28;102162;-83
2022/07/28 05:35:56;;;;;;;12.30;11.02;;;;;;;20.65;46.35;100600.97;4914656;28;97141;-85
2022/07/28 05:38:22;;;;;;;12.82;9.77;;;;;;;21.08;45.26;100599.69;4882359;28;97032;-84
2022/07/28 05:40:49;;;;;;;10.90;9.88;;;;;;;21.59;43.44;100589.63;4895495;28;101231;-84
2022/07/28 05:43:14;;;;;;;11.90;9.77;;;;;;;22.51;42.08;100606.53;4913084;28;97339;-84
2022/07/28 05:45:40;;;;;;;11.65;10.40;;;;;;;23.52;40.29;100599.28;4896111;28;96777;-83
2022/07/28 05:48:06;;;;;;;10.95;9.90;;;;;;;24.66;38.21;100595.75;4881235;28;97015;-83
2022/07/28 05:50:31;;;;;;;13.02;10.50;;;;;;;25.92;35.91;100582.47;4897718;28;97586;-84
2022/07/28 05:52:57;;;;;;;10.95;10.07;;;;;;;27.00;34.20;100592.63;4896305;28;98141;-84
2022/07/28 05:55:22;;;;;;;10.98;10.07;;;;;;;28.10;32.66;100583.31;4897610;28;96724;-84
2022/07/28 05:57:48;;;;;;;13.05;10.40;;;;;;;28.92;31.23;100589.09;4897232;28;97059;-86
2022/07/28 06:00:15;;;;;;;11.65;10.63;;;;;;;29.55;30.07;100591.25;4880970;28;100931;-86
2022/07/28 06:02:47;;;;;;;10.32;9.40;;;;;;;30.23;28.55;100587.31;4896684;28;98222;-86
2022/07/28 06:05:15;;;;;;;11.05;9.88;;;;;;;31.07;27.93;100581.38;4881355;28;96904;-86
2022/07/28 06:07:42;;;;;;;10.05;9.15;;;;;;;31.97;26.64;100583.34;4912559;28;97475;-86
2022/07/28 06:10:08;;;;;;;11.93;10.30;;;;;;;32.62;26.03;100590.78;4896839;28;98121;-86
2022/07/28 06:12:39;;;;;;;11.75;10.70;;;;;;;32.86;25.33;100569.75;4896645;28;101253;-86
2022/07/28 06:15:05;;;;;;;11.32;10.32;;;;;;;33.58;24.44;100583.28;4897695;28;98233;-86
2022/07/28 06:17:30;;;;;;;14.18;12.77;;;;;;;34.26;23.14;100588.19;4916468;28;96879;-86
2022/07/28 06:19:56;;;;;;;11.13;10.15;;;;;;;33.99;23.59;100592.59;4896313;28;97580;-87
2022/07/28 06:22:21;;;;;;;11.57;10.48;;;;;;;34.60;22.65;100587.34;4880326;28;100146;-87
2022/07/28 06:24:47;;;;;;;11.50;10.50;;;;;;;34.81;22.24;100574.63;4914639;28;96994;-87
2022/07/28 06:27:12;;;;;;;12.02;10.77;;;;;;;35.05;22.79;100586.88;4896629;28;96919;-86
2022/07/28 06:29:37;;;;;;;11.85;10.70;;;;;;;35.39;22.21;100585.88;4893167;28;101406;-86
2022/07/28 06:32:04;;;;;;;11.50;10.48;;;;;;;35.27;21.42;100582.94;4912147;28;98455;-86
2022/07/28 06:34:29;;;;;;;12.27;11.07;;;;;;;36.12;20.85;100582.31;4896610;28;96821;-86
2022/07/28 06:36:54;;;;;;;13.27;11.02;;;;;;;35.97;20.98;100580.63;4897374;28;97081;-86
2022/07/28 06:39:20;;;;;;;12.50;11.20;;;;;;;36.04;20.39;100591.56;4895880;28;101301;-86
2022/07/28 06:41:46;;;;;;;12.35;10.60;;;;;;;35.40;21.20;100564.88;4889473;28;98747;-86
2022/07/28 06:44:11;;;;;;;11.70;10.73;;;;;;;36.64;19.93;100588.69;4893061;28;97984;-86
2022/07/28 06:46:37;;;;;;;13.93;11.25;;;;;;;36.43;20.47;100592.53;4887113;28;96873;-86
2022/07/28 06:49:03;;;;;;;11.82;10.73;;;;;;;36.97;19.78;100571.28;4878370;28;101861;-87
2022/07/28 06:51:30;;;;;;;12.57;11.48;;;;;;;36.75;20.03;100577.09;4912791;28;97451;-86
2022/07/28 06:53:56;;;;;;;12.50;11.50;;;;;;;37.43;19.85;100584.66;4894256;28;96805;-86
2022/07/28 06:56:21;;;;;;;11.18;10.38;;;;;;;37.38;20.11;100579.00;4896405;28;97111;-87
2022/07/28 06:58:47;;;;;;;11.40;10.30;;;;;;;37.23;19.80;100583.97;4912398;28;97630;-86
2022/07/28 07:01:14;;;;;;;11.20;10.27;;;;;;;37.57;18.72;100578.03;4896796;28;97556;-87
2022/07/28 07:03:41;;;;;;;12.18;10.57;;;;;;;37.34;19.12;100578.63;4912466;28;97364;-86
2022/07/28 07:06:06;;;;;;;10.85;9.88;;;;;;;37.90;19.04;100582.38;4880443;28;97258;-86
2022/07/28 07:08:32;;;;;;;11.10;10.30;;;;;;;37.97;19.10;100582.34;4911644;28;99433;-86
2022/07/28 07:10:58;;;;;;;11.18;10.38;;;;;;;38.10;18.51;100579.47;4908777;28;98002;-85
2022/07/28 07:13:23;;;;;;;11.48;10.48;;;;;;;37.90;18.19;100592.50;4894671;28;96825;-86
2022/07/28 07:15:49;;;;;;;10.77;10.00;;;;;;;38.29;18.67;100591.28;4895523;28;97056;-86
2022/07/28 07:18:14;;;;;;;12.50;11.30;;;;;;;37.92;18.77;100590.38;4893655;28;101224;-87
2022/07/28 07:20:40;;;;;;;12.13;10.90;;;;;;;38.09;18.92;100585.19;4878411;28;99875;-86
2022/07/28 07:23:05;;;;;;;13.02;11.75;;;;;;;38.25;18.72;100590.03;4883378;28;96870;-87
2022/07/28 07:25:31;;;;;;;11.65;10.65;;;;;;;37.98;18.45;100589.50;4880266;28;97149;-86
2022/07/28 07:27:56;;;;;;;11.27;10.32;;;;;;;38.07;18.17;100590.88;4879184;28;97519;-87
2022/07/28 07:30:21;;;;;;;12.52;11.40;;;;;;;38.30;18.11;100589.38;4878949;28;101239;-86
2022/07/28 07:32:47;;;;;;;11.57;10.77;;;;;;;38.78;17.62;100581.22;4892492;28;98032;-86
2022/07/28 07:35:12;;;;;;;12.05;11.18;;;;;;;38.53;17.67;100564.03;4884167;28;96912;-86
2022/07/28 07:37:39;;;;;;;11.85;10.77;;;;;;;38.78;17.66;100574.88;4892502;28;101119;-86
2022/07/28 07:40:05;;;;;;;11.35;10.50;;;;;;;39.02;17.77;100582.16;4881173;28;97399;-86
2022/07/28 07:42:31;;;;;;;11.27;10.30;;;;;;;38.79;17.67;100573.81;4886161;28;97359;-89
2022/07/28 07:44:56;;;;;;;11.68;10.73;;;;;;;38.72;17.92;100590.38;4891245;28;96839;-86
2022/07/28 07:47:22;;;;;;;12.00;11.00;;;;;;;37.44;18.33;100582.75;4890662;28;101057;-87
2022/07/28 07:49:48;;;;;;;13.00;11.90;;;;;;;36.70;18.78;100593.28;4915225;28;97397;-87
2022/07/28 07:52:14;;;;;;;12.55;11.32;;;;;;;36.18;19.37;100586.94;4898766;28;96747;-86
2022/07/28 07:54:39;;;;;;;12.63;11.32;;;;;;;36.92;19.08;100586.47;4896078;28;97955;-87
2022/07/28 07:57:05;;;;;;;12.02;11.07;;;;;;;37.12;18.73;100574.56;4886735;28;101333;-87
2022/07/28 07:59:30;;;;;;;12.70;11.48;;;;;;;37.46;18.92;100573.25;4882828;28;101380;-82
2022/07/28 08:01:56;;;;;;;11.85;11.00;;;;;;;37.46;18.68;100575.16;4898993;28;96858;-86
2022/07/28 08:04:23;;;;;;;11.27;10.48;;;;;;;37.20;18.89;100574.31;4914688;28;97469;-85
2022/07/28 08:06:49;;;;;;;12.20;11.18;;;;;;;37.48;18.42;100573.91;4883108;28;101064;-85
2022/07/28 08:09:15;;;;;;;12.80;11.63;;;;;;;37.12;18.88;100569.09;4913995;28;97886;-85
2022/07/28 08:11:41;;;;;;;13.70;12.30;;;;;;;37.28;19.11;100565.81;4899064;28;96898;-85
2022/07/28 08:14:06;;;;;;;11.85;10.88;;;;;;;37.68;18.85;100556.50;4898593;28;97418;-86
2022/07/28 08:16:32;;;;;;;12.45;11.55;;;;;;;37.56;18.63;100572.81;4899341;28;97719;-87
2022/07/28 08:18:57;;;;;;;12.65;11.73;;;;;;;37.24;18.54;100575.56;4913885;28;100993;-86
2022/07/28 08:21:24;;;;;;;13.45;11.98;;;;;;;36.99;18.63;100580.09;4898350;28;96958;-86
2022/07/28 08:23:50;;;;;;;12.57;11.57;;;;;;;36.65;19.28;100574.81;4908386;28;97135;-86
2022/07/28 08:26:16;;;;;;;11.98;11.15;;;;;;;36.55;18.88;100570.88;4907957;28;97542;-86
2022/07/28 08:28:41;;;;;;;12.63;11.75;;;;;;;36.03;19.33;100576.22;4898327;28;97935;-86
2022/07/28 08:31:07;;;;;;;12.75;11.75;;;;;;;35.73;19.68;100568.50;4896621;28;96938;-86
2022/07/28 08:33:32;;;;;;;11.68;10.98;;;;;;;35.59;19.86;100564.94;4898217;28;98444;-86
2022/07/28 08:35:58;;;;;;;11.80;11.00;;;;;;;35.85;20.18;100556.94;4914498;28;98042;-87
2022/07/28 08:38:25;;;;;;;12.40;11.50;;;;;;;36.31;19.20;100559.59;4898531;28;96863;-86
2022/07/28 08:40:52;;;;;;;12.23;11.23;;;;;;;36.81;19.41;100564.44;4899217;28;96996;-87
2022/07/28 08:43:30;;;;;;;12.70;11.88;;;;;;;36.75;18.99;100568.88;4897565;28;97378;-86
2022/07/28 08:45:58;;;;;;;14.88;13.38;;;;;;;36.52;19.75;100547.53;4905508;28;97519;-88
2022/07/28 08:48:24;;;;;;;12.82;12.00;;;;;;;36.40;19.36;100541.06;4908994;28;100633;-86
2022/07/28 08:50:51;;;;;;;14.25;13.15;;;;;;;36.22;19.13;100556.25;4894615;28;97728;-86
2022/07/28 08:53:18;;;;;;;13.18;12.07;;;;;;;36.66;19.42;100554.63;4904542;28;97272;-84
2022/07/28 08:55:44;;;;;;;13.68;11.25;;;;;;;36.32;19.06;100555.78;4896838;28;101321;-86
2022/07/28 08:58:10;;;;;;;12.10;11.30;;;;;;;35.31;20.00;100551.44;4895330;28;101364;-86
2022/07/28 09:00:36;;;;;;;11.88;10.90;;;;;;;35.94;20.08;100550.19;4914288;28;96779;-85
2022/07/28 09:03:03;;;;;;;11.88;11.10;;;;;;;36.02;19.88;100542.59;4897143;28;96883;-86
2022/07/28 09:05:28;;;;;;;12.60;11.68;;;;;;;36.03;19.89;100541.53;4896227;28;101670;-86
2022/07/28 09:07:54;;;;;;;15.02;13.80;;;;;;;35.29;20.35;100541.81;4912310;28;103267;-84
2022/07/28 09:10:19;;;;;;;11.95;11.05;;;;;;;34.24;21.05;100552.16;4894539;28;98071;-86
2022/07/28 09:12:45;;;;;;;12.35;11.20;;;;;;;34.29;21.39;100538.75;4879741;28;97097;-85
2022/07/28 09:15:12;;;;;;;11.38;10.65;;;;;;;34.32;21.25;100548.41;4897080;28;97655;-85
2022/07/28 09:17:38;;;;;;;12.38;11.38;;;;;;;34.64;21.43;100546.88;4894440;28;97454;-86
2022/07/28 09:20:05;;;;;;;11.55;10.75;;;;;;;34.81;21.37;100545.47;4880520;28;96809;-86
2022/07/28 09:22:34;;;;;;;12.93;11.63;;;;;;;34.80;21.32;100548.41;4894674;28;96923;-85
2022/07/28 09:25:02;;;;;;;11.43;10.43;;;;;;;34.89;21.37;100539.00;4894753;28;98701;-86
2022/07/28 09:27:42;;;;;;;11.18;10.35;;;;;;;35.66;20.42;100543.06;4899631;28;98515;-85
2022/07/28 09:30:08;;;;;;;;;;;;;;;34.95;20.94;100557.25;4902021;28;98358;-86
2022/07/28 09:32:33;;;;;;;10.35;9.55;;;;;;;34.95;21.17;100535.44;4896212;28;97531;-85
2022/07/28 09:34:59;;;;;;;11.15;9.90;;;;;;;34.90;21.50;100536.03;4896133;28;97625;-86
2022/07/28 09:37:26;;;;;;;10.48;9.70;;;;;;;35.09;21.58;100542.63;4907150;28;101533;-86
2022/07/28 09:39:58;;;;;;;10.65;9.95;;;;;;;34.70;21.16;100549.66;4897362;28;96949;-87
2022/07/28 09:42:24;;;;;;;11.50;10.63;;;;;;;34.13;21.70;100522.75;4908199;28;97002;-85
2022/07/28 09:45:09;;;;;;;15.43;14.13;;;;;;;34.46;21.39;100544.69;4878267;28;100983;-86
2022/07/28 09:47:39;;;;;;;11.70;10.57;;;;;;;33.68;21.81;100528.50;4917210;28;98446;-86
2022/07/28 09:50:05;;;;;;;11.07;10.10;;;;;;;33.80;21.79;100526.94;4914555;28;96806;-86
2022/07/28 09:52:40;;;;;;;12.00;9.82;;;;;;;33.78;22.35;100539.88;4894343;28;97261;-85
2022/07/28 09:55:06;;;;;;;11.32;10.50;;;;;;;33.54;22.48;100538.47;4898593;28;97585;-86
2022/07/28 09:57:34;;;;;;;12.18;10.10;;;;;;;33.57;22.49;100540.78;4898735;28;98572;-85
2022/07/28 10:00:04;;;;;;;11.13;10.10;;;;;;;33.21;22.59;100519.09;4896571;28;96867;-84
2022/07/28 10:02:37;;;;;;;10.35;9.35;;;;;;;33.02;22.22;100520.59;4896838;28;97211;-85
2022/07/28 10:05:03;;;;;;;10.48;9.60;;;;;;;32.36;23.35;100520.63;4896957;28;97529;-85
2022/07/28 10:07:29;;;;;;;10.07;9.10;;;;;;;31.25;24.12;100530.41;4911678;28;99382;-84
2022/07/28 10:09:58;;;;;;;10.32;9.20;;;;;;;31.18;25.10;100534.84;4887950;28;96843;-85
2022/07/28 10:12:26;;;;;;;10.43;9.40;;;;;;;30.93;24.95;100523.34;4887684;28;97142;-85
2022/07/28 10:14:53;;;;;;;11.70;9.70;;;;;;;30.96;25.08;100517.56;4896611;28;101431;-86
2022/07/28 10:17:22;;;;;;;10.30;9.50;;;;;;;31.20;25.24;100519.25;4895931;28;100126;-86
2022/07/28 10:19:47;;;;;;;9.93;8.95;;;;;;;31.18;24.85;100521.28;4912319;28;97088;-87
2022/07/28 10:22:16;;;;;;;9.18;8.45;;;;;;;30.65;24.98;100502.16;4887796;28;97547;-83
2022/07/28 10:24:43;;;;;;;11.20;9.77;;;;;;;30.52;25.66;100528.16;4887450;28;101117;-86
2022/07/28 10:27:08;;;;;;;11.23;10.05;;;;;;;30.41;25.81;100529.38;4910406;28;97496;-84
2022/07/28 10:29:34;;;;;;;10.45;9.10;;;;;;;30.35;25.88;100521.97;4915275;28;97261;-86
2022/07/28 10:32:04;;;;;;;10.30;9.40;;;;;;;30.14;25.95;100520.66;4894652;28;97110;-86
2022/07/28 10:34:33;;;;;;;9.18;8.38;;;;;;;29.86;26.54;100482.34;4877964;28;100801;-86
2022/07/28 10:37:02;;;;;;;14.27;9.30;;;;;;;29.78;26.52;100517.53;4878736;28;101130;-85
2022/07/28 10:39:31;;;;;;;9.73;8.93;;;;;;;29.84;26.57;100524.13;4910263;28;96819;-86
2022/07/28 10:41:56;;;;;;;10.07;9.17;;;;;;;29.82;26.87;100526.13;4913260;28;97756;-86
2022/07/28 10:44:22;;;;;;;10.93;9.63;;;;;;;29.71;26.83;100524.66;4873488;28;101462;-86
2022/07/28 10:46:48;;;;;;;12.00;9.00;;;;;;;29.73;27.09;100517.19;4906614;28;100797;-85
2022/07/28 10:49:14;;;;;;;9.60;8.70;;;;;;;29.51;27.23;100519.56;4906964;28;96873;-85
2022/07/28 10:51:42;;;;;;;8.60;7.90;;;;;;;29.33;27.14;100517.06;4876903;28;97136;-86
2022/07/28 10:54:14;;;;;;;8.50;7.80;;;;;;;29.28;26.86;100516.72;4908726;28;97769;-86
2022/07/28 10:56:47;;;;;;;10.43;8.00;;;;;;;29.15;26.84;100513.69;4916062;28;98348;-85
2022/07/28 10:59:38;;;;;;;11.25;8.40;;;;;;;29.14;27.68;100508.44;4893946;28;97259;-86
2022/07/28 11:02:04;;;;;;;10.57;8.40;;;;;;;29.17;27.95;100508.09;4888758;28;97631;-78
2022/07/28 11:04:47;;;;;;;8.98;8.10;;;;;;;29.19;27.65;100512.31;4903392;28;98369;-78
2022/07/28 11:07:15;;;;;;;9.30;8.30;;;;;;;29.27;27.57;100500.69;4911030;28;101009;-79
2022/07/28 11:09:42;;;;;;;9.38;8.00;;;;;;;29.24;27.39;100490.19;4904999;28;97305;-80
2022/07/28 11:12:08;;;;;;;11.27;7.07;;;;;;;29.31;27.92;100497.44;4899879;28;97210;-80
2022/07/28 11:14:35;;;;;;;9.25;8.45;;;;;;;29.33;27.44;100503.53;4906331;28;98094;-79